sensor_id;sensor_type;location;lat;lon;timestamp;P1;durP1;ratioP1;P2;durP2;ratioP2
68523;SDS011;55524;51.380;13.372;2022-11-15T00:02:19;42.55;;;18.90;;
68523;SDS011;55524;51.380;13.372;2022-11-15T00:05:06;41.72;;;18.52;;
68523;SDS011;55524;51.380;13.372;2022-11-15T00:07:52;41.13;;;18.88;;
68523;SDS011;55524;51.380;13.372;2022-11-15T00:10:18;37.80;;;17.55;;
68523;SDS011;55524;51.380;13.372;2022-11-15T00:13:09;41.53;;;18.02;;
68523;SDS011;55524;51.380;13.372;2022-11-15T00:15:41;36.38;;;17.40;;
68523;SDS011;55524;51.380;13.372;2022-11-15T00:18:12;39.78;;;17.80;;
68523;SDS011;55524;51.380;13.372;2022-11-15T00:20:50;40.47;;;18.30;;
68523;SDS011;55524;51.380;13.372;2022-11-15T00:23:38;37.05;;;17.55;;
68523;SDS011;55524;51.380;13.372;2022-11-15T00:26:22;43.80;;;18.35;;
68523;SDS011;55524;51.380;13.372;2022-11-15T00:28:57;40.63;;;17.67;;
68523;SDS011;55524;51.380;13.372;2022-11-15T00:31:26;41.78;;;17.67;;
68523;SDS011;55524;51.380;13.372;2022-11-15T00:33:52;39.65;;;18.15;;
68523;SDS011;55524;51.380;13.372;2022-11-15T00:36:39;42.53;;;18.33;;
68523;SDS011;55524;51.380;13.372;2022-11-15T00:39:17;40.17;;;18.30;;
68523;SDS011;55524;51.380;13.372;2022-11-15T00:42:21;38.95;;;17.10;;
68523;SDS011;55524;51.380;13.372;2022-11-15T00:45:08;37.15;;;18.30;;
68523;SDS011;55524;51.380;13.372;2022-11-15T00:48:01;37.78;;;17.92;;
68523;SDS011;55524;51.380;13.372;2022-11-15T00:50:48;38.85;;;17.20;;
68523;SDS011;55524;51.380;13.372;2022-11-15T00:53:34;36.05;;;17.83;;
68523;SDS011;55524;51.380;13.372;2022-11-15T00:56:00;37.85;;;16.98;;
68523;SDS011;55524;51.380;13.372;2022-11-15T00:58:47;37.38;;;16.95;;
68523;SDS011;55524;51.380;13.372;2022-11-15T01:01:40;38.50;;;16.77;;
68523;SDS011;55524;51.380;13.372;2022-11-15T01:04:35;37.55;;;17.08;;
68523;SDS011;55524;51.380;13.372;2022-11-15T01:07:01;41.05;;;18.35;;
68523;SDS011;55524;51.380;13.372;2022-11-15T01:10:08;43.05;;;18.45;;
68523;SDS011;55524;51.380;13.372;2022-11-15T01:12:37;40.95;;;17.40;;
68523;SDS011;55524;51.380;13.372;2022-11-15T01:15:04;40.17;;;18.75;;
68523;SDS011;55524;51.380;13.372;2022-11-15T01:17:33;40.60;;;18.75;;
68523;SDS011;55524;51.380;13.372;2022-11-15T01:20:29;38.80;;;17.73;;
68523;SDS011;55524;51.380;13.372;2022-11-15T01:22:55;40.97;;;18.15;;
68523;SDS011;55524;51.380;13.372;2022-11-15T01:25:41;41.55;;;18.92;;
68523;SDS011;55524;51.380;13.372;2022-11-15T01:31:41;42.78;;;18.48;;
68523;SDS011;55524;51.380;13.372;2022-11-15T01:34:07;47.60;;;20.77;;
68523;SDS011;55524;51.380;13.372;2022-11-15T01:36:33;43.88;;;19.83;;
68523;SDS011;55524;51.380;13.372;2022-11-15T01:39:40;41.63;;;18.73;;
68523;SDS011;55524;51.380;13.372;2022-11-15T01:42:09;44.53;;;18.95;;
68523;SDS011;55524;51.380;13.372;2022-11-15T01:44:58;43.53;;;19.92;;
68523;SDS011;55524;51.380;13.372;2022-11-15T01:47:25;40.30;;;18.63;;
68523;SDS011;55524;51.380;13.372;2022-11-15T01:50:15;45.97;;;20.50;;
68523;SDS011;55524;51.380;13.372;2022-11-15T01:53:02;41.45;;;19.52;;
68523;SDS011;55524;51.380;13.372;2022-11-15T01:55:29;45.42;;;20.33;;
68523;SDS011;55524;51.380;13.372;2022-11-15T01:58:04;47.75;;;21.33;;
68523;SDS011;55524;51.380;13.372;2022-11-15T02:00:50;45.22;;;19.58;;
68523;SDS011;55524;51.380;13.372;2022-11-15T02:03:39;43.42;;;19.98;;
68523;SDS011;55524;51.380;13.372;2022-11-15T02:06:28;49.00;;;20.75;;
68523;SDS011;55524;51.380;13.372;2022-11-15T02:09:14;42.22;;;19.75;;
68523;SDS011;55524;51.380;13.372;2022-11-15T02:12:01;47.83;;;20.20;;
68523;SDS011;55524;51.380;13.372;2022-11-15T02:14:47;45.25;;;20.40;;
68523;SDS011;55524;51.380;13.372;2022-11-15T02:21:05;45.72;;;19.27;;
68523;SDS011;55524;51.380;13.372;2022-11-15T02:32:32;44.03;;;20.20;;
68523;SDS011;55524;51.380;13.372;2022-11-15T02:38:24;54.80;;;22.45;;
68523;SDS011;55524;51.380;13.372;2022-11-15T02:41:16;49.03;;;21.48;;
68523;SDS011;55524;51.380;13.372;2022-11-15T02:44:25;48.33;;;21.55;;
68523;SDS011;55524;51.380;13.372;2022-11-15T02:47:01;44.05;;;20.50;;
68523;SDS011;55524;51.380;13.372;2022-11-15T02:52:43;49.25;;;21.98;;
68523;SDS011;55524;51.380;13.372;2022-11-15T03:07:18;49.53;;;21.13;;
68523;SDS011;55524;51.380;13.372;2022-11-15T03:09:58;55.05;;;21.98;;
68523;SDS011;55524;51.380;13.372;2022-11-15T03:20:31;46.55;;;20.90;;
68523;SDS011;55524;51.380;13.372;2022-11-15T03:23:18;47.42;;;20.83;;
68523;SDS011;55524;51.380;13.372;2022-11-15T03:26:00;53.38;;;22.08;;
68523;SDS011;55524;51.380;13.372;2022-11-15T03:31:29;52.40;;;21.83;;
68523;SDS011;55524;51.380;13.372;2022-11-15T03:36:59;47.83;;;20.60;;
68523;SDS011;55524;51.380;13.372;2022-11-15T03:39:44;45.88;;;21.55;;
68523;SDS011;55524;51.380;13.372;2022-11-15T03:42:33;49.00;;;21.00;;
68523;SDS011;55524;51.380;13.372;2022-11-15T03:45:08;46.50;;;20.48;;
68523;SDS011;55524;51.380;13.372;2022-11-15T03:47:54;51.05;;;21.23;;
68523;SDS011;55524;51.380;13.372;2022-11-15T03:50:44;51.05;;;20.85;;
68523;SDS011;55524;51.380;13.372;2022-11-15T03:53:31;47.33;;;20.20;;
68523;SDS011;55524;51.380;13.372;2022-11-15T03:56:27;51.25;;;21.83;;
68523;SDS011;55524;51.380;13.372;2022-11-15T03:59:14;47.42;;;20.58;;
68523;SDS011;55524;51.380;13.372;2022-11-15T04:01:57;51.78;;;21.15;;
68523;SDS011;55524;51.380;13.372;2022-11-15T04:05:07;48.00;;;20.67;;
68523;SDS011;55524;51.380;13.372;2022-11-15T04:07:42;50.85;;;20.88;;
68523;SDS011;55524;51.380;13.372;2022-11-15T04:10:31;52.03;;;20.30;;
68523;SDS011;55524;51.380;13.372;2022-11-15T04:13:03;43.72;;;19.52;;
68523;SDS011;55524;51.380;13.372;2022-11-15T04:15:30;49.20;;;20.42;;
68523;SDS011;55524;51.380;13.372;2022-11-15T04:18:19;45.38;;;19.60;;
68523;SDS011;55524;51.380;13.372;2022-11-15T04:21:05;42.55;;;18.98;;
68523;SDS011;55524;51.380;13.372;2022-11-15T04:24:11;45.80;;;19.60;;
68523;SDS011;55524;51.380;13.372;2022-11-15T04:27:01;46.45;;;18.33;;
68523;SDS011;55524;51.380;13.372;2022-11-15T04:29:37;48.25;;;19.20;;
68523;SDS011;55524;51.380;13.372;2022-11-15T04:32:12;45.15;;;18.80;;
68523;SDS011;55524;51.380;13.372;2022-11-15T04:34:56;41.75;;;17.85;;
68523;SDS011;55524;51.380;13.372;2022-11-15T04:37:43;43.65;;;18.10;;
68523;SDS011;55524;51.380;13.372;2022-11-15T04:40:30;43.08;;;17.58;;
68523;SDS011;55524;51.380;13.372;2022-11-15T04:43:19;43.38;;;17.10;;
68523;SDS011;55524;51.380;13.372;2022-11-15T04:46:29;43.95;;;17.85;;
68523;SDS011;55524;51.380;13.372;2022-11-15T04:49:04;40.60;;;18.20;;
68523;SDS011;55524;51.380;13.372;2022-11-15T04:51:51;44.63;;;17.70;;
68523;SDS011;55524;51.380;13.372;2022-11-15T04:54:17;41.83;;;17.48;;
68523;SDS011;55524;51.380;13.372;2022-11-15T04:56:49;44.08;;;19.48;;
68523;SDS011;55524;51.380;13.372;2022-11-15T04:59:18;45.00;;;19.60;;
68523;SDS011;55524;51.380;13.372;2022-11-15T05:02:05;47.13;;;20.23;;
68523;SDS011;55524;51.380;13.372;2022-11-15T05:04:51;54.00;;;22.58;;
68523;SDS011;55524;51.380;13.372;2022-11-15T05:07:17;49.38;;;21.38;;
68523;SDS011;55524;51.380;13.372;2022-11-15T05:13:30;51.95;;;20.48;;
68523;SDS011;55524;51.380;13.372;2022-11-15T05:16:20;41.20;;;17.55;;
68523;SDS011;55524;51.380;13.372;2022-11-15T05:19:06;42.03;;;18.08;;
68523;SDS011;55524;51.380;13.372;2022-11-15T05:21:53;44.58;;;19.58;;
68523;SDS011;55524;51.380;13.372;2022-11-15T05:24:37;45.55;;;18.98;;
68523;SDS011;55524;51.380;13.372;2022-11-15T05:27:03;43.40;;;18.42;;
68523;SDS011;55524;51.380;13.372;2022-11-15T05:29:29;46.45;;;18.90;;
68523;SDS011;55524;51.380;13.372;2022-11-15T05:32:13;46.83;;;18.02;;
68523;SDS011;55524;51.380;13.372;2022-11-15T05:35:00;46.65;;;17.98;;
68523;SDS011;55524;51.380;13.372;2022-11-15T05:37:46;39.90;;;16.65;;
68523;SDS011;55524;51.380;13.372;2022-11-15T05:40:33;40.92;;;17.23;;
68523;SDS011;55524;51.380;13.372;2022-11-15T05:43:00;43.58;;;17.67;;
68523;SDS011;55524;51.380;13.372;2022-11-15T05:45:31;43.78;;;18.23;;
68523;SDS011;55524;51.380;13.372;2022-11-15T05:48:05;44.08;;;17.27;;
68523;SDS011;55524;51.380;13.372;2022-11-15T05:50:36;49.78;;;19.27;;
68523;SDS011;55524;51.380;13.372;2022-11-15T05:53:24;47.55;;;18.27;;
68523;SDS011;55524;51.380;13.372;2022-11-15T05:56:03;55.78;;;21.17;;
68523;SDS011;55524;51.380;13.372;2022-11-15T05:58:51;50.72;;;19.48;;
68523;SDS011;55524;51.380;13.372;2022-11-15T06:01:28;51.33;;;19.95;;
68523;SDS011;55524;51.380;13.372;2022-11-15T06:03:55;54.40;;;20.98;;
68523;SDS011;55524;51.380;13.372;2022-11-15T06:06:21;54.47;;;21.77;;
68523;SDS011;55524;51.380;13.372;2022-11-15T06:09:08;51.78;;;20.35;;
68523;SDS011;55524;51.380;13.372;2022-11-15T06:11:34;50.38;;;20.48;;
68523;SDS011;55524;51.380;13.372;2022-11-15T06:14:00;50.63;;;19.80;;
68523;SDS011;55524;51.380;13.372;2022-11-15T06:17:07;52.70;;;19.15;;
68523;SDS011;55524;51.380;13.372;2022-11-15T06:20:03;56.83;;;20.50;;
68523;SDS011;55524;51.380;13.372;2022-11-15T06:22:29;55.03;;;21.45;;
68523;SDS011;55524;51.380;13.372;2022-11-15T06:24:55;55.42;;;20.75;;
68523;SDS011;55524;51.380;13.372;2022-11-15T06:27:24;53.40;;;21.20;;
68523;SDS011;55524;51.380;13.372;2022-11-15T06:29:54;53.25;;;20.23;;
68523;SDS011;55524;51.380;13.372;2022-11-15T06:32:40;61.05;;;22.02;;
68523;SDS011;55524;51.380;13.372;2022-11-15T06:35:27;57.55;;;21.65;;
68523;SDS011;55524;51.380;13.372;2022-11-15T06:37:54;48.63;;;21.33;;
68523;SDS011;55524;51.380;13.372;2022-11-15T06:40:33;59.92;;;21.63;;
68523;SDS011;55524;51.380;13.372;2022-11-15T06:43:19;51.67;;;20.15;;
68523;SDS011;55524;51.380;13.372;2022-11-15T06:45:48;49.55;;;20.13;;
68523;SDS011;55524;51.380;13.372;2022-11-15T06:48:35;49.78;;;20.42;;
68523;SDS011;55524;51.380;13.372;2022-11-15T06:51:02;51.25;;;20.20;;
68523;SDS011;55524;51.380;13.372;2022-11-15T06:53:33;52.33;;;20.00;;
68523;SDS011;55524;51.380;13.372;2022-11-15T06:56:11;54.95;;;21.25;;
68523;SDS011;55524;51.380;13.372;2022-11-15T06:59:01;47.75;;;20.17;;
68523;SDS011;55524;51.380;13.372;2022-11-15T07:01:31;53.35;;;20.95;;
68523;SDS011;55524;51.380;13.372;2022-11-15T07:03:57;54.78;;;21.40;;
68523;SDS011;55524;51.380;13.372;2022-11-15T07:06:41;54.90;;;20.27;;
68523;SDS011;55524;51.380;13.372;2022-11-15T07:09:28;50.88;;;20.60;;
68523;SDS011;55524;51.380;13.372;2022-11-15T07:11:54;45.88;;;18.38;;
68523;SDS011;55524;51.380;13.372;2022-11-15T07:14:20;54.17;;;21.38;;
68523;SDS011;55524;51.380;13.372;2022-11-15T07:17:07;51.08;;;20.45;;
68523;SDS011;55524;51.380;13.372;2022-11-15T07:20:02;52.17;;;21.58;;
68523;SDS011;55524;51.380;13.372;2022-11-15T07:22:49;70.97;;;24.10;;
68523;SDS011;55524;51.380;13.372;2022-11-15T07:25:35;70.28;;;23.45;;
68523;SDS011;55524;51.380;13.372;2022-11-15T07:28:02;60.22;;;22.30;;
68523;SDS011;55524;51.380;13.372;2022-11-15T07:31:09;48.83;;;21.33;;
68523;SDS011;55524;51.380;13.372;2022-11-15T07:33:56;45.13;;;18.70;;
68523;SDS011;55524;51.380;13.372;2022-11-15T07:37:03;45.67;;;18.83;;
68523;SDS011;55524;51.380;13.372;2022-11-15T07:39:29;47.35;;;18.95;;
68523;SDS011;55524;51.380;13.372;2022-11-15T07:45:23;40.53;;;18.30;;
68523;SDS011;55524;51.380;13.372;2022-11-15T07:48:33;38.95;;;16.90;;
68523;SDS011;55524;51.380;13.372;2022-11-15T07:51:18;37.00;;;16.90;;
68523;SDS011;55524;51.380;13.372;2022-11-15T07:54:07;45.92;;;17.25;;
68523;SDS011;55524;51.380;13.372;2022-11-15T07:56:35;32.80;;;15.07;;
68523;SDS011;55524;51.380;13.372;2022-11-15T07:59:02;35.95;;;15.48;;
68523;SDS011;55524;51.380;13.372;2022-11-15T08:01:40;42.25;;;16.05;;
68523;SDS011;55524;51.380;13.372;2022-11-15T08:04:26;33.50;;;15.38;;
68523;SDS011;55524;51.380;13.372;2022-11-15T08:07:16;30.30;;;14.18;;
68523;SDS011;55524;51.380;13.372;2022-11-15T08:10:03;40.33;;;17.63;;
68523;SDS011;55524;51.380;13.372;2022-11-15T08:12:35;35.92;;;15.85;;
68523;SDS011;55524;51.380;13.372;2022-11-15T08:15:21;31.25;;;15.95;;
68523;SDS011;55524;51.380;13.372;2022-11-15T08:18:28;30.15;;;16.05;;
68523;SDS011;55524;51.380;13.372;2022-11-15T08:20:58;35.88;;;16.30;;
68523;SDS011;55524;51.380;13.372;2022-11-15T08:24:10;30.38;;;14.43;;
68523;SDS011;55524;51.380;13.372;2022-11-15T08:26:54;34.78;;;15.32;;
68523;SDS011;55524;51.380;13.372;2022-11-15T08:30:01;37.17;;;15.52;;
68523;SDS011;55524;51.380;13.372;2022-11-15T08:32:41;32.70;;;15.23;;
68523;SDS011;55524;51.380;13.372;2022-11-15T08:35:07;32.47;;;16.20;;
68523;SDS011;55524;51.380;13.372;2022-11-15T08:37:47;33.30;;;15.02;;
68523;SDS011;55524;51.380;13.372;2022-11-15T08:40:19;34.47;;;16.02;;
68523;SDS011;55524;51.380;13.372;2022-11-15T08:42:47;31.45;;;15.55;;
68523;SDS011;55524;51.380;13.372;2022-11-15T08:45:36;34.75;;;15.70;;
68523;SDS011;55524;51.380;13.372;2022-11-15T08:48:03;34.78;;;15.93;;
68523;SDS011;55524;51.380;13.372;2022-11-15T08:50:35;27.98;;;15.15;;
68523;SDS011;55524;51.380;13.372;2022-11-15T08:53:05;30.95;;;14.93;;
68523;SDS011;55524;51.380;13.372;2022-11-15T08:55:38;32.58;;;14.88;;
68523;SDS011;55524;51.380;13.372;2022-11-15T08:58:11;29.55;;;14.43;;
68523;SDS011;55524;51.380;13.372;2022-11-15T09:00:46;32.50;;;15.23;;
68523;SDS011;55524;51.380;13.372;2022-11-15T09:03:15;30.70;;;14.75;;
68523;SDS011;55524;51.380;13.372;2022-11-15T09:05:43;27.52;;;14.27;;
68523;SDS011;55524;51.380;13.372;2022-11-15T09:08:19;31.35;;;13.98;;
68523;SDS011;55524;51.380;13.372;2022-11-15T09:11:05;27.00;;;14.23;;
68523;SDS011;55524;51.380;13.372;2022-11-15T09:13:34;27.52;;;14.68;;
68523;SDS011;55524;51.380;13.372;2022-11-15T09:16:40;27.38;;;13.70;;
68523;SDS011;55524;51.380;13.372;2022-11-15T09:19:12;25.00;;;13.18;;
68523;SDS011;55524;51.380;13.372;2022-11-15T09:21:47;33.13;;;15.20;;
68523;SDS011;55524;51.380;13.372;2022-11-15T09:24:36;31.23;;;14.15;;
68523;SDS011;55524;51.380;13.372;2022-11-15T09:27:14;28.02;;;14.43;;
68523;SDS011;55524;51.380;13.372;2022-11-15T09:30:00;31.35;;;14.13;;
68523;SDS011;55524;51.380;13.372;2022-11-15T09:32:36;29.95;;;14.40;;
68523;SDS011;55524;51.380;13.372;2022-11-15T09:35:03;29.75;;;13.65;;
68523;SDS011;55524;51.380;13.372;2022-11-15T09:37:31;26.58;;;13.98;;
68523;SDS011;55524;51.380;13.372;2022-11-15T09:40:10;28.88;;;13.68;;
68523;SDS011;55524;51.380;13.372;2022-11-15T09:45:39;29.73;;;13.50;;
68523;SDS011;55524;51.380;13.372;2022-11-15T09:51:25;24.15;;;13.27;;
68523;SDS011;55524;51.380;13.372;2022-11-15T09:57:37;31.63;;;12.65;;
68523;SDS011;55524;51.380;13.372;2022-11-15T10:05:36;29.38;;;13.07;;
68523;SDS011;55524;51.380;13.372;2022-11-15T10:11:10;24.80;;;12.75;;
68523;SDS011;55524;51.380;13.372;2022-11-15T10:13:47;31.23;;;13.55;;
68523;SDS011;55524;51.380;13.372;2022-11-15T10:24:42;20.88;;;11.65;;
68523;SDS011;55524;51.380;13.372;2022-11-15T10:27:17;20.58;;;11.00;;
68523;SDS011;55524;51.380;13.372;2022-11-15T10:30:04;25.27;;;11.70;;
68523;SDS011;55524;51.380;13.372;2022-11-15T10:32:46;21.02;;;11.23;;
68523;SDS011;55524;51.380;13.372;2022-11-15T10:35:31;20.58;;;10.68;;
68523;SDS011;55524;51.380;13.372;2022-11-15T10:38:20;18.27;;;10.77;;
68523;SDS011;55524;51.380;13.372;2022-11-15T10:41:07;21.40;;;10.63;;
68523;SDS011;55524;51.380;13.372;2022-11-15T10:43:39;22.75;;;11.38;;
68523;SDS011;55524;51.380;13.372;2022-11-15T10:46:39;22.48;;;11.23;;
68523;SDS011;55524;51.380;13.372;2022-11-15T10:55:28;17.42;;;9.73;;
68523;SDS011;55524;51.380;13.372;2022-11-15T11:01:50;16.35;;;9.70;;
68523;SDS011;55524;51.380;13.372;2022-11-15T11:04:22;18.15;;;9.98;;
68523;SDS011;55524;51.380;13.372;2022-11-15T11:07:20;21.48;;;10.05;;
68523;SDS011;55524;51.380;13.372;2022-11-15T11:10:00;13.75;;;8.15;;
68523;SDS011;55524;51.380;13.372;2022-11-15T11:12:41;20.98;;;9.50;;
68523;SDS011;55524;51.380;13.372;2022-11-15T11:15:24;17.25;;;8.80;;
68523;SDS011;55524;51.380;13.372;2022-11-15T11:18:33;16.88;;;9.40;;
68523;SDS011;55524;51.380;13.372;2022-11-15T11:21:14;16.08;;;8.90;;
68523;SDS011;55524;51.380;13.372;2022-11-15T11:38:46;15.98;;;8.68;;
68523;SDS011;55524;51.380;13.372;2022-11-15T11:50:22;14.50;;;9.13;;
68523;SDS011;55524;51.380;13.372;2022-11-15T11:53:29;15.52;;;8.85;;
68523;SDS011;55524;51.380;13.372;2022-11-15T11:56:20;19.92;;;9.32;;
68523;SDS011;55524;51.380;13.372;2022-11-15T11:58:53;15.98;;;8.90;;
68523;SDS011;55524;51.380;13.372;2022-11-15T12:01:42;15.98;;;7.95;;
68523;SDS011;55524;51.380;13.372;2022-11-15T12:07:37;15.48;;;8.40;;
68523;SDS011;55524;51.380;13.372;2022-11-15T12:15:39;15.43;;;7.80;;
68523;SDS011;55524;51.380;13.372;2022-11-15T12:18:25;16.13;;;7.95;;
68523;SDS011;55524;51.380;13.372;2022-11-15T12:24:14;12.02;;;7.53;;
68523;SDS011;55524;51.380;13.372;2022-11-15T12:29:46;15.43;;;7.75;;
68523;SDS011;55524;51.380;13.372;2022-11-15T12:32:39;10.73;;;6.85;;
68523;SDS011;55524;51.380;13.372;2022-11-15T12:35:59;10.40;;;6.50;;
68523;SDS011;55524;51.380;13.372;2022-11-15T12:41:35;15.05;;;7.07;;
68523;SDS011;55524;51.380;13.372;2022-11-15T12:47:26;12.32;;;6.63;;
68523;SDS011;55524;51.380;13.372;2022-11-15T12:58:47;14.73;;;6.90;;
68523;SDS011;55524;51.380;13.372;2022-11-15T13:06:43;11.75;;;6.85;;
68523;SDS011;55524;51.380;13.372;2022-11-15T13:09:51;10.38;;;6.50;;
68523;SDS011;55524;51.380;13.372;2022-11-15T13:24:02;14.05;;;7.65;;
68523;SDS011;55524;51.380;13.372;2022-11-15T13:26:49;12.80;;;7.55;;
68523;SDS011;55524;51.380;13.372;2022-11-15T13:29:22;12.30;;;7.80;;
68523;SDS011;55524;51.380;13.372;2022-11-15T13:31:52;14.98;;;9.10;;
68523;SDS011;55524;51.380;13.372;2022-11-15T13:34:32;16.35;;;8.75;;
68523;SDS011;55524;51.380;13.372;2022-11-15T13:37:01;13.90;;;8.27;;
68523;SDS011;55524;51.380;13.372;2022-11-15T13:39:49;16.60;;;8.80;;
68523;SDS011;55524;51.380;13.372;2022-11-15T13:42:36;16.20;;;9.52;;
68523;SDS011;55524;51.380;13.372;2022-11-15T13:45:05;16.83;;;10.00;;
68523;SDS011;55524;51.380;13.372;2022-11-15T13:47:55;17.77;;;9.27;;
68523;SDS011;55524;51.380;13.372;2022-11-15T13:50:42;18.95;;;8.77;;
68523;SDS011;55524;51.380;13.372;2022-11-15T13:53:35;17.70;;;9.30;;
68523;SDS011;55524;51.380;13.372;2022-11-15T13:56:16;15.55;;;9.15;;
68523;SDS011;55524;51.380;13.372;2022-11-15T13:59:10;14.98;;;9.60;;
68523;SDS011;55524;51.380;13.372;2022-11-15T14:02:02;19.15;;;9.60;;
68523;SDS011;55524;51.380;13.372;2022-11-15T14:08:01;21.83;;;9.82;;
68523;SDS011;55524;51.380;13.372;2022-11-15T14:10:37;20.45;;;10.18;;
68523;SDS011;55524;51.380;13.372;2022-11-15T14:13:27;17.00;;;9.52;;
68523;SDS011;55524;51.380;13.372;2022-11-15T14:24:39;23.92;;;10.13;;
68523;SDS011;55524;51.380;13.372;2022-11-15T14:27:29;19.35;;;11.25;;
68523;SDS011;55524;51.380;13.372;2022-11-15T14:30:29;19.65;;;11.00;;
68523;SDS011;55524;51.380;13.372;2022-11-15T14:33:37;21.00;;;11.60;;
68523;SDS011;55524;51.380;13.372;2022-11-15T14:39:57;87.45;;;17.08;;
68523;SDS011;55524;51.380;13.372;2022-11-15T14:42:32;18.55;;;11.05;;
68523;SDS011;55524;51.380;13.372;2022-11-15T14:45:47;22.55;;;11.05;;
68523;SDS011;55524;51.380;13.372;2022-11-15T14:48:50;20.88;;;10.95;;
68523;SDS011;55524;51.380;13.372;2022-11-15T14:52:24;19.23;;;10.70;;
68523;SDS011;55524;51.380;13.372;2022-11-15T14:55:14;19.30;;;11.25;;
68523;SDS011;55524;51.380;13.372;2022-11-15T14:58:14;22.27;;;11.43;;
68523;SDS011;55524;51.380;13.372;2022-11-15T15:01:38;22.17;;;10.82;;
68523;SDS011;55524;51.380;13.372;2022-11-15T15:04:23;20.27;;;11.30;;
68523;SDS011;55524;51.380;13.372;2022-11-15T15:07:19;21.88;;;11.07;;
68523;SDS011;55524;51.380;13.372;2022-11-15T15:10:09;22.00;;;11.50;;
68523;SDS011;55524;51.380;13.372;2022-11-15T15:12:55;19.25;;;11.18;;
68523;SDS011;55524;51.380;13.372;2022-11-15T15:15:51;22.90;;;11.85;;
68523;SDS011;55524;51.380;13.372;2022-11-15T15:18:35;19.90;;;11.98;;
68523;SDS011;55524;51.380;13.372;2022-11-15T15:21:42;22.45;;;11.75;;
68523;SDS011;55524;51.380;13.372;2022-11-15T15:24:31;21.67;;;12.35;;
68523;SDS011;55524;51.380;13.372;2022-11-15T15:27:06;29.77;;;15.77;;
68523;SDS011;55524;51.380;13.372;2022-11-15T15:29:53;38.45;;;18.95;;
68523;SDS011;55524;51.380;13.372;2022-11-15T15:32:40;36.85;;;17.25;;
68523;SDS011;55524;51.380;13.372;2022-11-15T15:35:07;37.10;;;16.30;;
68523;SDS011;55524;51.380;13.372;2022-11-15T15:38:03;29.98;;;15.68;;
68523;SDS011;55524;51.380;13.372;2022-11-15T15:40:44;77.55;;;20.55;;
68523;SDS011;55524;51.380;13.372;2022-11-15T15:44:02;58.20;;;18.90;;
68523;SDS011;55524;51.380;13.372;2022-11-15T15:50:01;47.10;;;17.05;;
68523;SDS011;55524;51.380;13.372;2022-11-15T16:09:09;31.90;;;16.38;;
68523;SDS011;55524;51.380;13.372;2022-11-15T16:18:52;45.65;;;17.80;;
68523;SDS011;55524;51.380;13.372;2022-11-15T16:21:27;31.30;;;15.27;;
68523;SDS011;55524;51.380;13.372;2022-11-15T16:24:34;33.70;;;15.90;;
68523;SDS011;55524;51.380;13.372;2022-11-15T16:27:00;30.60;;;14.95;;
68523;SDS011;55524;51.380;13.372;2022-11-15T16:29:47;31.25;;;15.02;;
68523;SDS011;55524;51.380;13.372;2022-11-15T16:32:33;31.25;;;15.18;;
68523;SDS011;55524;51.380;13.372;2022-11-15T16:35:20;32.00;;;15.80;;
68523;SDS011;55524;51.380;13.372;2022-11-15T16:38:08;29.65;;;14.55;;
68523;SDS011;55524;51.380;13.372;2022-11-15T16:41:07;29.17;;;14.82;;
68523;SDS011;55524;51.380;13.372;2022-11-15T16:43:34;32.80;;;17.65;;
68523;SDS011;55524;51.380;13.372;2022-11-15T16:46:18;32.17;;;15.65;;
68523;SDS011;55524;51.380;13.372;2022-11-15T16:49:05;35.10;;;16.17;;
68523;SDS011;55524;51.380;13.372;2022-11-15T16:54:56;37.22;;;15.93;;
68523;SDS011;55524;51.380;13.372;2022-11-15T16:57:42;53.03;;;21.20;;
68523;SDS011;55524;51.380;13.372;2022-11-15T17:00:26;50.70;;;20.60;;
68523;SDS011;55524;51.380;13.372;2022-11-15T17:03:17;46.85;;;19.15;;
68523;SDS011;55524;51.380;13.372;2022-11-15T17:05:46;42.33;;;17.67;;
68523;SDS011;55524;51.380;13.372;2022-11-15T17:08:36;48.72;;;19.17;;
68523;SDS011;55524;51.380;13.372;2022-11-15T17:11:08;47.10;;;21.40;;
68523;SDS011;55524;51.380;13.372;2022-11-15T17:14:15;50.65;;;21.77;;
68523;SDS011;55524;51.380;13.372;2022-11-15T17:17:25;41.90;;;20.83;;
68523;SDS011;55524;51.380;13.372;2022-11-15T17:20:29;34.22;;;17.08;;
68523;SDS011;55524;51.380;13.372;2022-11-15T17:23:19;36.58;;;16.90;;
68523;SDS011;55524;51.380;13.372;2022-11-15T17:25:46;39.97;;;16.77;;
68523;SDS011;55524;51.380;13.372;2022-11-15T17:28:12;33.90;;;16.58;;
68523;SDS011;55524;51.380;13.372;2022-11-15T17:31:04;36.22;;;15.10;;
68523;SDS011;55524;51.380;13.372;2022-11-15T17:34:03;34.97;;;14.93;;
68523;SDS011;55524;51.380;13.372;2022-11-15T17:37:12;26.38;;;14.20;;
68523;SDS011;55524;51.380;13.372;2022-11-15T17:40:01;31.42;;;14.55;;
68523;SDS011;55524;51.380;13.372;2022-11-15T17:43:02;33.05;;;14.35;;
68523;SDS011;55524;51.380;13.372;2022-11-15T17:45:35;31.48;;;14.30;;
68523;SDS011;55524;51.380;13.372;2022-11-15T17:48:31;28.33;;;14.43;;
68523;SDS011;55524;51.380;13.372;2022-11-15T17:51:17;34.00;;;14.93;;
68523;SDS011;55524;51.380;13.372;2022-11-15T17:54:27;33.95;;;15.23;;
68523;SDS011;55524;51.380;13.372;2022-11-15T17:57:14;45.60;;;20.33;;
68523;SDS011;55524;51.380;13.372;2022-11-15T18:00:03;59.70;;;27.45;;
68523;SDS011;55524;51.380;13.372;2022-11-15T18:02:35;38.92;;;19.27;;
68523;SDS011;55524;51.380;13.372;2022-11-15T18:05:10;36.55;;;15.90;;
68523;SDS011;55524;51.380;13.372;2022-11-15T18:07:57;41.15;;;16.52;;
68523;SDS011;55524;51.380;13.372;2022-11-15T18:10:47;33.55;;;15.40;;
68523;SDS011;55524;51.380;13.372;2022-11-15T18:13:25;32.95;;;15.38;;
68523;SDS011;55524;51.380;13.372;2022-11-15T18:15:57;32.97;;;15.40;;
68523;SDS011;55524;51.380;13.372;2022-11-15T18:18:44;38.20;;;16.35;;
68523;SDS011;55524;51.380;13.372;2022-11-15T18:21:22;35.72;;;16.60;;
68523;SDS011;55524;51.380;13.372;2022-11-15T18:24:27;39.35;;;17.33;;
68523;SDS011;55524;51.380;13.372;2022-11-15T18:27:20;35.38;;;16.40;;
68523;SDS011;55524;51.380;13.372;2022-11-15T18:29:46;31.90;;;16.35;;
68523;SDS011;55524;51.380;13.372;2022-11-15T18:32:36;34.22;;;15.52;;
68523;SDS011;55524;51.380;13.372;2022-11-15T18:35:02;32.55;;;16.13;;
68523;SDS011;55524;51.380;13.372;2022-11-15T18:37:30;32.67;;;17.25;;
68523;SDS011;55524;51.380;13.372;2022-11-15T18:40:06;43.03;;;17.67;;
68523;SDS011;55524;51.380;13.372;2022-11-15T18:42:43;29.55;;;14.80;;
68523;SDS011;55524;51.380;13.372;2022-11-15T18:45:15;33.42;;;15.10;;
68523;SDS011;55524;51.380;13.372;2022-11-15T18:48:02;31.52;;;15.40;;
68523;SDS011;55524;51.380;13.372;2022-11-15T18:50:51;34.25;;;15.25;;
68523;SDS011;55524;51.380;13.372;2022-11-15T18:53:41;34.47;;;15.65;;
68523;SDS011;55524;51.380;13.372;2022-11-15T18:56:31;29.90;;;14.80;;
68523;SDS011;55524;51.380;13.372;2022-11-15T18:59:04;31.70;;;14.50;;
68523;SDS011;55524;51.380;13.372;2022-11-15T19:01:38;31.33;;;14.05;;
68523;SDS011;55524;51.380;13.372;2022-11-15T19:04:28;33.70;;;15.40;;
68523;SDS011;55524;51.380;13.372;2022-11-15T19:07:17;32.28;;;15.15;;
68523;SDS011;55524;51.380;13.372;2022-11-15T19:09:46;34.05;;;16.02;;